Kalamazoo, Michigan
Current Conditions -  °F | °C
As of 2:53 AM on Sunday 26 Oct 2014 (Local Time) from KAZO Reporting Station
Clear Clear  
Wind Chill:   Ceiling: Unl
Heat Index:   Visibility: 10mi
Dew Point:   Wind: 7mph
Humidity: 58%   Direction: 310°NW
Pressure: 29.92"   Gusts: NA
Location:  42.29°N, 85.6°W
Report Text: KAZO 260653Z AUTO 31006KT 10SM CLR 08/00 A2992 RMK AO2 SLP131 T00780000 $
Loading
Personal Weather Stations






























Interactive Weather Map
Tropical Storm Tracking
New forecast layout! Learn more

10-Day Weather Forecast

Advertisements
Track Severe Weather on mobile